createdAt,value
2023-04-12T00:00:28.111Z,100240.72
2023-04-12T00:02:54.833Z,100247.84
2023-04-12T00:05:22.892Z,100235.66
2023-04-12T00:07:53.112Z,100239.19
2023-04-12T00:10:19.826Z,100232.78
2023-04-12T00:12:46.930Z,100232.34
2023-04-12T00:15:17.122Z,100223.59
2023-04-12T00:17:44.576Z,100225.50
2023-04-12T00:20:12.706Z,100220.84
2023-04-12T00:22:41.473Z,100202.69
2023-04-12T00:25:08.968Z,100187.53
2023-04-12T00:27:36.060Z,100183.94
2023-04-12T00:30:03.818Z,100182.78
2023-04-12T00:32:30.327Z,100179.19
2023-04-12T00:34:56.942Z,100169.06
2023-04-12T00:37:23.418Z,100160.31
2023-04-12T00:39:49.945Z,100147.13
2023-04-12T00:42:16.692Z,100151.84
2023-04-12T00:44:43.191Z,100155.41
2023-04-12T00:47:09.638Z,100155.63
2023-04-12T00:49:36.113Z,100158.34
2023-04-12T00:52:08.602Z,100152.91
2023-04-12T00:54:36.108Z,100146.72
2023-04-12T00:57:03.510Z,100143.31
2023-04-12T00:59:30.007Z,100134.97
2023-04-12T01:01:57.875Z,100132.25
2023-04-12T01:04:26.328Z,100127.03
2023-04-12T01:07:16.507Z,100127.19
2023-04-12T01:09:47.536Z,100129.50
2023-04-12T01:12:23.021Z,100130.97
2023-04-12T01:15:02.528Z,100126.91
2023-04-12T01:17:37.865Z,100117.03
2023-04-12T01:20:14.465Z,100111.84
2023-04-12T01:23:18.931Z,100113.38
2023-04-12T01:25:48.172Z,100109.75
2023-04-12T01:28:20.345Z,100113.78
2023-04-12T01:30:50.555Z,100119.06
2023-04-12T01:33:18.380Z,100103.34
2023-04-12T01:35:46.902Z,100103.81
2023-04-12T01:38:13.835Z,100103.44
2023-04-12T01:40:43.116Z,100097.69
2023-04-12T01:43:12.186Z,100090.75
2023-04-12T01:45:39.447Z,100082.84
2023-04-12T01:48:11.008Z,100085.63
2023-04-12T01:50:56.033Z,100082.25
2023-04-12T01:53:25.524Z,100066.16
2023-04-12T01:55:55.613Z,100064.25
2023-04-12T01:58:22.775Z,100049.88
2023-04-12T02:00:50.733Z,100043.88
2023-04-12T02:03:21.871Z,100047.13
2023-04-12T02:05:51.659Z,100039.31
2023-04-12T02:08:18.221Z,100037.09
2023-04-12T02:10:44.635Z,100036.25
2023-04-12T02:13:11.116Z,100030.06
2023-04-12T02:15:38.482Z,100026.72
2023-04-12T02:18:05.036Z,100014.56
2023-04-12T02:20:31.570Z,100018.19
2023-04-12T02:22:58.071Z,100014.69
2023-04-12T02:25:24.498Z,100006.16
2023-04-12T02:27:51.219Z,99999.22
2023-04-12T02:30:17.786Z,99996.19
2023-04-12T02:32:45.429Z,99988.28
2023-04-12T02:35:13.406Z,99986.03
2023-04-12T02:37:40.277Z,99982.50
2023-04-12T02:40:10.118Z,99980.53
2023-04-12T02:42:36.744Z,99972.19
2023-04-12T02:45:04.259Z,99972.72
2023-04-12T02:47:30.875Z,99959.69
2023-04-12T02:49:57.638Z,99956.13
2023-04-12T02:52:24.106Z,99952.06
2023-04-12T02:54:51.287Z,99954.38
2023-04-12T02:57:17.806Z,99948.63
2023-04-12T02:59:44.208Z,99933.25
2023-04-12T03:02:11.500Z,99935.38
2023-04-12T03:04:39.922Z,99948.38
2023-04-12T03:07:07.003Z,99938.25
2023-04-12T03:09:33.466Z,99942.19
2023-04-12T03:11:59.973Z,99931.19
2023-04-12T03:14:26.415Z,99929.84
2023-04-12T03:16:53.502Z,99937.31
2023-04-12T03:19:19.913Z,99927.81
2023-04-12T03:21:46.491Z,99914.78
2023-04-12T03:24:13.825Z,99923.53
2023-04-12T03:26:41.611Z,99915.28
2023-04-12T03:29:09.582Z,99906.88
2023-04-12T03:31:37.565Z,99893.19
2023-04-12T03:34:04.094Z,99896.94
2023-04-12T03:36:31.264Z,99887.78
2023-04-12T03:38:57.693Z,99891.31
2023-04-12T03:41:24.157Z,99883.06
2023-04-12T03:43:50.674Z,99875.25
2023-04-12T03:46:18.009Z,99878.09
2023-04-12T03:48:44.543Z,99868.94
2023-04-12T03:51:12.144Z,99862.81
2023-04-12T03:53:39.266Z,99857.66
2023-04-12T03:56:06.128Z,99854.97
2023-04-12T03:58:33.920Z,99839.34
2023-04-12T04:01:06.035Z,99831.88
2023-04-12T04:03:35.050Z,99830.16
2023-04-12T04:06:02.616Z,99827.59
2023-04-12T04:08:30.136Z,99814.97
2023-04-12T04:10:57.181Z,99816.06
2023-04-12T04:13:23.694Z,99809.22
2023-04-12T04:15:58.876Z,99811.66
2023-04-12T04:18:25.322Z,99802.81
2023-04-12T04:20:52.134Z,99806.25
2023-04-12T04:23:18.521Z,99796.56
2023-04-12T04:25:45.332Z,99812.59
2023-04-12T04:28:11.782Z,99789.22
2023-04-12T04:30:38.903Z,99791.66
2023-04-12T04:33:07.086Z,99783.63
2023-04-12T04:35:33.749Z,99781.78
2023-04-12T04:38:02.765Z,99782.06
2023-04-12T04:40:29.196Z,99770.22
2023-04-12T04:42:56.108Z,99775.44
2023-04-12T04:45:26.487Z,99772.00
2023-04-12T04:47:53.782Z,99770.91
2023-04-12T04:50:24.764Z,99755.41
2023-04-12T04:52:51.498Z,99760.38
2023-04-12T04:55:18.294Z,99758.41
2023-04-12T04:57:45.377Z,99753.53
2023-04-12T05:00:13.346Z,99755.22
2023-04-12T05:02:43.659Z,99749.09
2023-04-12T05:05:12.550Z,99748.53
2023-04-12T05:07:39.317Z,99752.09
2023-04-12T05:10:06.320Z,99745.63
2023-04-12T05:12:33.015Z,99740.97
2023-04-12T05:15:11.076Z,99746.69
2023-04-12T05:17:38.438Z,99732.38
2023-04-12T05:20:07.857Z,99743.31
2023-04-12T05:22:35.206Z,99737.34
2023-04-12T05:25:03.066Z,99737.94
2023-04-12T05:27:30.924Z,99728.53
2023-04-12T05:29:58.007Z,99724.78
2023-04-12T05:32:25.575Z,99726.34
2023-04-12T05:34:52.547Z,99726.47
2023-04-12T05:37:18.987Z,99715.03
2023-04-12T05:39:45.514Z,99711.69
2023-04-12T05:42:11.925Z,99701.88
2023-04-12T05:44:39.080Z,99702.03
2023-04-12T05:47:05.723Z,99698.84
2023-04-12T05:49:32.269Z,99684.03
2023-04-12T05:51:58.925Z,99680.59
2023-04-12T05:54:25.531Z,99671.44
2023-04-12T05:56:54.334Z,99663.00
2023-04-12T05:59:21.007Z,99670.66
2023-04-12T06:04:42.083Z,99670.03
2023-04-12T06:07:17.586Z,99670.50
2023-04-12T06:09:44.019Z,99671.56
2023-04-12T06:12:10.512Z,99667.66
2023-04-12T06:14:36.884Z,99657.63
2023-04-12T06:17:06.138Z,99661.19
2023-04-12T06:19:32.569Z,99639.22
2023-04-12T06:21:58.953Z,99642.75
2023-04-12T06:25:17.397Z,99644.00
2023-04-12T06:28:16.474Z,99640.31
2023-04-12T06:30:42.985Z,99633.47
2023-04-12T06:33:09.439Z,99629.59
2023-04-12T06:35:35.946Z,99628.72
2023-04-12T06:38:02.367Z,99615.75
2023-04-12T06:40:28.889Z,99619.25
2023-04-12T06:42:55.267Z,99614.16
2023-04-12T06:45:22.024Z,99619.75
2023-04-12T06:48:08.849Z,99604.41
2023-04-12T06:51:09.708Z,99606.53
2023-04-12T06:53:41.910Z,99597.25
2023-04-12T06:56:08.674Z,99599.97
2023-04-12T06:58:35.051Z,99603.47
2023-04-12T07:01:11.237Z,99590.44
2023-04-12T07:03:37.849Z,99586.41
2023-04-12T07:06:23.765Z,99577.09
2023-04-12T07:09:10.204Z,99584.09
2023-04-12T07:11:36.724Z,99575.72
2023-04-12T07:14:03.156Z,99573.00
2023-04-12T07:16:31.564Z,99570.75
2023-04-12T07:18:59.352Z,99566.94
2023-04-12T07:21:27.398Z,99559.44
2023-04-12T07:23:54.030Z,99560.06
2023-04-12T07:26:21.591Z,99541.13
2023-04-12T07:28:48.207Z,99551.59
2023-04-12T07:31:14.679Z,99542.66
2023-04-12T07:33:42.960Z,99539.94
2023-04-12T07:36:10.978Z,99537.97
2023-04-12T07:38:37.445Z,99531.75
2023-04-12T07:41:04.057Z,99545.25
2023-04-12T07:43:30.558Z,99526.53
2023-04-12T07:45:57.174Z,99526.53
2023-04-12T07:48:23.635Z,99524.22
2023-04-12T07:50:50.563Z,99512.84
2023-04-12T07:53:24.458Z,99505.59
2023-04-12T07:55:51.197Z,99503.81
2023-04-12T07:58:18.600Z,99505.47
2023-04-12T08:00:46.584Z,99500.44
2023-04-12T08:03:14.979Z,99483.72
2023-04-12T08:05:42.353Z,99468.81
2023-04-12T08:08:12.023Z,99464.78
2023-04-12T08:10:39.377Z,99467.00
2023-04-12T08:13:06.875Z,99446.16
2023-04-12T08:15:33.773Z,99455.59
2023-04-12T08:18:00.959Z,99458.34
2023-04-12T08:20:27.604Z,99448.09
2023-04-12T08:22:54.682Z,99448.56
2023-04-12T08:25:21.436Z,99448.34
2023-04-12T08:27:49.779Z,99435.13
2023-04-12T08:30:16.484Z,99431.91
2023-04-12T08:32:43.403Z,99431.16
2023-04-12T08:35:09.990Z,99434.44
2023-04-12T08:37:39.284Z,99420.16
2023-04-12T08:40:07.237Z,99405.81
2023-04-12T08:42:37.000Z,99404.44
2023-04-12T08:45:11.749Z,99410.47
2023-04-12T08:47:43.400Z,99397.81
2023-04-12T08:50:13.748Z,99385.97
2023-04-12T08:52:41.490Z,99382.25
2023-04-12T08:55:09.291Z,99387.44
2023-04-12T08:57:36.798Z,99378.75
2023-04-12T09:00:04.248Z,99372.59
2023-04-12T09:02:31.404Z,99365.53
2023-04-12T09:04:58.496Z,99354.94
2023-04-12T09:07:28.121Z,99351.72
2023-04-12T09:09:55.460Z,99345.66
2023-04-12T09:12:24.098Z,99354.47
2023-04-12T09:15:13.513Z,99347.66
2023-04-12T09:17:41.645Z,99343.72
2023-04-12T09:20:17.363Z,99342.44
2023-04-12T09:22:45.994Z,99350.28
2023-04-12T09:25:13.074Z,99334.78
2023-04-12T09:27:47.303Z,99343.13
2023-04-12T09:30:14.302Z,99335.16
2023-04-12T09:32:40.915Z,99327.88
2023-04-12T09:35:08.135Z,99331.19
2023-04-12T09:37:34.800Z,99326.03
2023-04-12T09:40:04.567Z,99321.78
2023-04-12T09:42:34.721Z,99317.22
2023-04-12T09:45:19.453Z,99311.47
2023-04-12T09:47:46.773Z,99320.56
2023-04-12T09:50:39.981Z,99310.47
2023-04-12T09:53:17.149Z,99313.34
2023-04-12T09:55:44.066Z,99308.50
2023-04-12T09:58:11.463Z,99291.66
2023-04-12T10:00:38.159Z,99308.81
2023-04-12T10:03:05.156Z,99306.38
2023-04-12T10:05:31.804Z,99304.72
2023-04-12T10:07:58.516Z,99285.34
2023-04-12T10:10:25.385Z,99293.38
2023-04-12T10:12:51.929Z,99296.47
2023-04-12T10:15:21.174Z,99281.03
2023-04-12T10:17:54.138Z,99279.06
2023-04-12T10:20:23.347Z,99282.66
2023-04-12T10:22:53.130Z,99280.97
2023-04-12T10:25:22.215Z,99266.63
2023-04-12T10:27:49.494Z,99267.97
2023-04-12T10:30:18.755Z,99266.22
2023-04-12T10:32:45.296Z,99259.69
2023-04-12T10:35:12.180Z,99264.75
2023-04-12T10:38:01.638Z,99260.97
2023-04-12T10:40:32.743Z,99263.13
2023-04-12T10:43:27.937Z,99258.78
2023-04-12T10:45:54.787Z,99249.75
2023-04-12T10:48:50.738Z,99254.72
2023-04-12T10:51:26.709Z,99249.44
2023-04-12T10:54:08.662Z,99252.69
2023-04-12T10:56:39.016Z,99251.81
2023-04-12T10:59:07.334Z,99261.06
2023-04-12T11:01:36.904Z,99243.31
2023-04-12T11:04:13.828Z,99241.47
2023-04-12T11:06:58.493Z,99248.50
2023-04-12T11:09:27.045Z,99232.31
2023-04-12T11:12:05.322Z,99238.34
2023-04-12T11:14:49.607Z,99239.00
2023-04-12T11:17:16.123Z,99239.38
2023-04-12T11:19:57.451Z,99230.78
2023-04-12T11:22:27.324Z,99226.56
2023-04-12T11:24:56.037Z,99220.09
2023-04-12T11:27:24.780Z,99231.88
2023-04-12T11:29:54.391Z,99217.25
2023-04-12T11:32:22.038Z,99207.88
2023-04-12T11:34:48.698Z,99215.41
2023-04-12T11:37:15.667Z,99208.22
2023-04-12T11:39:43.703Z,99215.09
2023-04-12T11:42:21.172Z,99200.63
2023-04-12T11:44:57.514Z,99208.81
2023-04-12T11:47:27.722Z,99199.03
2023-04-12T11:49:56.064Z,99204.56
2023-04-12T11:52:29.193Z,99205.69
2023-04-12T11:54:58.711Z,99202.50
2023-04-12T11:57:25.426Z,99190.22
2023-04-12T11:59:52.718Z,99189.97
2023-04-12T12:02:22.489Z,99191.47
2023-04-12T12:04:51.130Z,99209.59
2023-04-12T12:07:18.401Z,99188.53
2023-04-12T12:09:49.042Z,99169.56
2023-04-12T12:12:16.108Z,99171.91
2023-04-12T12:14:45.455Z,99168.81
2023-04-12T12:17:16.999Z,99154.31
2023-04-12T12:19:45.400Z,99151.22
2023-04-12T12:22:15.037Z,99143.28
2023-04-12T12:24:54.657Z,99155.19
2023-04-12T12:27:41.798Z,99149.16
2023-04-12T12:30:09.467Z,99143.44
2023-04-12T12:32:39.053Z,99146.09
2023-04-12T12:35:13.356Z,99136.91
2023-04-12T12:37:53.224Z,99132.59
2023-04-12T12:40:29.380Z,99134.28
2023-04-12T12:42:56.238Z,99136.00
2023-04-12T12:45:24.444Z,99127.66
2023-04-12T12:48:04.006Z,99128.47
2023-04-12T12:50:33.124Z,99123.66
2023-04-12T12:53:00.845Z,99120.00
2023-04-12T12:55:28.478Z,99115.31
2023-04-12T12:58:07.548Z,99107.06
2023-04-12T13:00:34.537Z,99106.22
2023-04-12T13:03:01.588Z,99103.34
2023-04-12T13:05:28.486Z,99094.22
2023-04-12T13:07:57.738Z,99090.81
2023-04-12T13:10:24.285Z,99086.22
2023-04-12T13:12:51.426Z,99096.81
2023-04-12T13:15:23.163Z,99082.78
2023-04-12T13:17:53.749Z,99086.66
2023-04-12T13:20:21.104Z,99092.94
2023-04-12T13:22:47.752Z,99077.09
2023-04-12T13:25:14.313Z,99088.00
2023-04-12T13:27:40.916Z,99072.78
2023-04-12T13:30:08.296Z,99080.88
2023-04-12T13:32:35.957Z,99076.84
2023-04-12T13:35:03.431Z,99071.50
2023-04-12T13:37:30.151Z,99073.13
2023-04-12T13:39:56.759Z,99071.19
2023-04-12T13:42:23.707Z,99048.81
2023-04-12T13:44:50.422Z,99051.63
2023-04-12T13:47:20.082Z,99055.88
2023-04-12T13:49:46.538Z,99046.59
2023-04-12T13:52:13.331Z,99049.94
2023-04-12T13:54:40.782Z,99038.94
2023-04-12T13:57:07.945Z,99048.38
2023-04-12T13:59:34.571Z,99048.25
2023-04-12T14:02:01.541Z,99048.31
2023-04-12T14:04:29.437Z,99054.28
2023-04-12T14:06:57.047Z,99046.28
2023-04-12T14:09:28.499Z,99044.81
2023-04-12T14:11:57.686Z,99049.50
2023-04-12T14:14:25.696Z,99044.00
2023-04-12T14:16:57.188Z,99033.28
2023-04-12T14:19:24.548Z,99029.75
2023-04-12T14:21:51.742Z,99032.63
2023-04-12T14:24:19.312Z,99039.50
2023-04-12T14:26:46.051Z,99034.22
2023-04-12T14:29:13.465Z,99029.53
2023-04-12T14:31:40.282Z,99027.31
2023-04-12T14:34:08.771Z,99025.13
2023-04-12T14:36:35.422Z,99013.81
2023-04-12T14:39:03.984Z,99018.91
2023-04-12T14:41:31.609Z,99016.28
2023-04-12T14:44:01.479Z,99005.63
2023-04-12T14:46:28.448Z,99002.91
2023-04-12T14:48:57.198Z,99003.38
2023-04-12T14:51:24.056Z,98993.81
2023-04-12T14:53:50.537Z,98986.44
2023-04-12T14:56:22.336Z,98979.25
2023-04-12T14:58:54.570Z,98981.31
2023-04-12T15:01:21.800Z,98975.41
2023-04-12T15:03:48.448Z,98985.75
2023-04-12T15:06:15.577Z,98988.59
2023-04-12T15:08:42.955Z,98996.56
2023-04-12T15:11:10.763Z,98985.56
2023-04-12T15:13:39.852Z,98993.81
2023-04-12T15:16:08.687Z,98987.22
2023-04-12T15:18:39.281Z,99000.00
2023-04-12T15:21:08.277Z,98995.53
2023-04-12T15:23:35.694Z,98981.78
2023-04-12T15:26:04.945Z,98987.78
2023-04-12T15:28:32.772Z,98984.56
2023-04-12T15:30:59.580Z,98988.47
2023-04-12T15:33:26.166Z,98979.41
2023-04-12T15:35:56.544Z,98976.75
2023-04-12T15:38:24.782Z,98981.38
2023-04-12T15:41:01.606Z,98967.38
2023-04-12T15:43:28.698Z,98966.13
2023-04-12T15:45:55.336Z,98959.69
2023-04-12T15:48:22.977Z,98953.69
2023-04-12T15:50:51.007Z,98947.13
2023-04-12T15:53:21.318Z,98955.94
2023-04-12T15:55:48.586Z,98947.81
2023-04-12T15:58:15.402Z,98944.00
2023-04-12T16:00:42.462Z,98938.41
2023-04-12T16:03:09.454Z,98938.00
2023-04-12T16:05:36.197Z,98947.22
2023-04-12T16:08:02.992Z,98933.78
2023-04-12T16:10:30.394Z,98935.75
2023-04-12T16:12:57.220Z,98939.69
2023-04-12T16:15:23.790Z,98937.44
2023-04-12T16:17:55.393Z,98937.31
2023-04-12T16:20:22.817Z,98941.34
2023-04-12T16:22:54.355Z,98937.03
2023-04-12T16:25:22.383Z,98929.56
2023-04-12T16:27:48.841Z,98930.78
2023-04-12T16:30:15.761Z,98927.28
2023-04-12T16:32:46.472Z,98928.13
2023-04-12T16:35:14.930Z,98937.47
2023-04-12T16:37:44.865Z,98922.28
2023-04-12T16:40:12.815Z,98931.44
2023-04-12T16:42:43.975Z,98922.81
2023-04-12T16:45:12.167Z,98927.22
2023-04-12T16:47:39.665Z,98921.28
2023-04-12T16:50:10.285Z,98927.94
2023-04-12T16:52:37.637Z,98914.22
2023-04-12T16:55:04.633Z,98902.06
2023-04-12T16:57:31.288Z,98900.38
2023-04-12T16:59:57.997Z,98905.31
2023-04-12T17:02:25.063Z,98905.25
2023-04-12T17:04:51.865Z,98905.00
2023-04-12T17:07:18.923Z,98896.28
2023-04-12T17:09:45.548Z,98897.72
2023-04-12T17:12:12.571Z,98902.94
2023-04-12T17:14:39.155Z,98903.34
2023-04-12T17:17:06.666Z,98898.78
2023-04-12T17:19:33.327Z,98894.50
2023-04-12T17:21:59.781Z,98896.31
2023-04-12T17:24:26.530Z,98898.28
2023-04-12T17:26:53.760Z,98892.13
2023-04-12T17:29:20.385Z,98897.84
2023-04-12T17:31:49.756Z,98891.41
2023-04-12T17:34:18.518Z,98881.25
2023-04-12T17:36:45.010Z,98885.16
2023-04-12T17:39:11.509Z,98879.44
2023-04-12T17:41:38.244Z,98884.13
2023-04-12T17:44:05.696Z,98896.09
2023-04-12T17:46:33.110Z,98902.78
2023-04-12T17:49:00.532Z,98906.53
2023-04-12T17:51:27.018Z,98897.94
2023-04-12T17:53:55.181Z,98906.94
2023-04-12T17:56:21.639Z,98910.56
2023-04-12T17:58:48.049Z,98906.41
2023-04-12T18:01:16.171Z,98900.38
2023-04-12T18:03:43.071Z,98905.00
2023-04-12T18:06:09.781Z,98903.84
2023-04-12T18:08:37.551Z,98907.78
2023-04-12T18:11:06.175Z,98908.78
2023-04-12T18:13:32.932Z,98912.50
2023-04-12T18:15:59.542Z,98916.25
2023-04-12T18:18:26.069Z,98927.69
2023-04-12T18:20:52.756Z,98934.31
2023-04-12T18:23:19.225Z,98950.41
2023-04-12T18:25:45.859Z,98958.97
2023-04-12T18:28:12.356Z,98969.47
2023-04-12T18:30:38.809Z,98972.81
2023-04-12T18:33:05.485Z,98977.38
2023-04-12T18:35:32.049Z,98971.81
2023-04-12T18:37:58.442Z,98956.47
2023-04-12T18:40:24.939Z,98977.16
2023-04-12T18:42:51.361Z,98978.25
2023-04-12T18:45:19.779Z,98993.94
2023-04-12T18:47:46.264Z,98995.38
2023-04-12T18:50:14.095Z,98990.34
2023-04-12T18:52:40.917Z,98989.63
2023-04-12T18:55:08.016Z,98971.72
2023-04-12T18:57:34.601Z,98985.44
2023-04-12T19:00:01.496Z,98991.88
2023-04-12T19:02:28.276Z,98996.19
2023-04-12T19:04:55.116Z,99003.47
2023-04-12T19:07:22.175Z,99012.59
2023-04-12T19:09:48.724Z,99005.81
2023-04-12T19:12:15.416Z,99008.88
2023-04-12T19:14:41.916Z,99013.06
2023-04-12T19:17:09.406Z,99016.31
2023-04-12T19:19:35.944Z,99022.94
2023-04-12T19:22:02.440Z,99025.03
2023-04-12T19:24:28.939Z,99032.63
2023-04-12T19:26:56.007Z,99026.19
2023-04-12T19:29:22.753Z,99038.00
2023-04-12T19:31:49.669Z,99045.31
2023-04-12T19:34:17.954Z,99054.25
2023-04-12T19:36:44.787Z,99078.31
2023-04-12T19:39:11.486Z,99080.75
2023-04-12T19:41:37.955Z,99084.03
2023-04-12T19:44:04.404Z,99084.72
2023-04-12T19:46:32.660Z,99081.09
2023-04-12T19:48:59.436Z,99083.63
2023-04-12T19:51:26.149Z,99078.81
2023-04-12T19:53:54.862Z,99084.78
2023-04-12T19:56:23.638Z,99098.31
2023-04-12T19:58:50.130Z,99105.75
2023-04-12T20:01:16.696Z,99097.38
2023-04-12T20:03:46.146Z,99101.97
2023-04-12T20:06:12.775Z,99096.81
2023-04-12T20:08:39.538Z,99100.44
2023-04-12T20:11:06.156Z,99111.50
2023-04-12T20:13:34.065Z,99117.94
2023-04-12T20:16:01.175Z,99117.25
2023-04-12T20:18:28.390Z,99120.00
2023-04-12T20:20:57.611Z,99111.41
2023-04-12T20:23:25.918Z,99109.91
2023-04-12T20:25:52.344Z,99110.38
2023-04-12T20:28:19.609Z,99101.88
2023-04-12T20:30:47.939Z,99106.81
2023-04-12T20:33:15.098Z,99121.38
2023-04-12T20:35:44.735Z,99118.34
2023-04-12T20:38:11.801Z,99113.41
2023-04-12T20:40:39.722Z,99122.53
2023-04-12T20:43:06.299Z,99136.03
2023-04-12T20:45:34.570Z,99131.16
2023-04-12T20:48:01.113Z,99140.59
2023-04-12T20:50:30.417Z,99142.00
2023-04-12T20:52:57.846Z,99161.03
2023-04-12T20:55:31.067Z,99146.84
2023-04-12T20:57:57.492Z,99138.41
2023-04-12T21:00:23.993Z,99142.97
2023-04-12T21:02:50.944Z,99146.16
2023-04-12T21:05:17.474Z,99143.78
2023-04-12T21:07:46.423Z,99158.06
2023-04-12T21:10:13.633Z,99158.06
2023-04-12T21:12:41.083Z,99155.91
2023-04-12T21:15:08.584Z,99150.84
2023-04-12T21:17:37.811Z,99143.19
2023-04-12T21:20:09.584Z,99145.72
2023-04-12T21:22:36.257Z,99155.56
2023-04-12T21:25:02.707Z,99159.00
2023-04-12T21:27:29.152Z,99166.78
2023-04-12T21:29:55.680Z,99163.56
2023-04-12T21:32:22.187Z,99164.06
2023-04-12T21:34:50.027Z,99170.72
2023-04-12T21:37:16.798Z,99169.22
2023-04-12T21:39:43.603Z,99159.88
2023-04-12T21:42:10.060Z,99176.63
2023-04-12T21:44:37.197Z,99168.06
2023-04-12T21:47:03.664Z,99173.66
2023-04-12T21:49:30.653Z,99164.66
2023-04-12T21:51:59.127Z,99170.69
2023-04-12T21:54:28.790Z,99169.13
2023-04-12T21:56:56.044Z,99178.09
2023-04-12T21:59:22.565Z,99169.72
2023-04-12T22:01:48.984Z,99166.63
2023-04-12T22:04:15.898Z,99149.00
2023-04-12T22:06:44.528Z,99148.44
2023-04-12T22:09:10.924Z,99155.28
2023-04-12T22:11:37.392Z,99148.75
2023-04-12T22:14:04.020Z,99156.38
2023-04-12T22:16:30.511Z,99152.03
2023-04-12T22:18:59.299Z,99153.84
2023-04-12T22:21:28.203Z,99150.59
2023-04-12T22:23:55.159Z,99146.34
2023-04-12T22:26:21.601Z,99139.75
2023-04-12T22:28:49.634Z,99143.50
2023-04-12T22:31:16.392Z,99145.88
2023-04-12T22:33:43.707Z,99150.47
2023-04-12T22:36:10.358Z,99145.91
2023-04-12T22:38:38.185Z,99136.53
2023-04-12T22:41:05.033Z,99137.97
2023-04-12T22:43:41.688Z,99131.78
2023-04-12T22:46:15.826Z,99136.56
2023-04-12T22:48:49.163Z,99141.88
2023-04-12T22:51:15.835Z,99162.25
2023-04-12T22:53:43.344Z,99173.06
2023-04-12T22:56:09.918Z,99175.00
2023-04-12T22:58:37.270Z,99170.06
2023-04-12T23:01:06.560Z,99159.69
2023-04-12T23:03:33.109Z,99160.78
2023-04-12T23:06:00.132Z,99161.13
2023-04-12T23:08:26.621Z,99154.88
2023-04-12T23:10:53.238Z,99153.34
2023-04-12T23:13:19.754Z,99152.25
2023-04-12T23:15:46.292Z,99151.03
2023-04-12T23:18:12.994Z,99162.31
2023-04-12T23:20:40.231Z,99155.63
2023-04-12T23:23:06.768Z,99147.19
2023-04-12T23:25:41.692Z,99149.34
2023-04-12T23:28:14.015Z,99147.41
2023-04-12T23:30:48.778Z,99134.44
2023-04-12T23:33:18.453Z,99137.25
2023-04-12T23:35:46.922Z,99132.72
2023-04-12T23:38:24.112Z,99139.94
2023-04-12T23:40:56.358Z,99143.50
2023-04-12T23:43:24.434Z,99147.00
2023-04-12T23:45:54.158Z,99149.03
2023-04-12T23:48:20.807Z,99146.94
2023-04-12T23:50:48.230Z,99155.63
2023-04-12T23:53:16.059Z,99154.72
2023-04-12T23:55:43.792Z,99166.88
2023-04-12T23:58:10.349Z,99174.19
